NCAR-RAP Real-Time Weather Data

Output produced by METARs form (10 April 2020  05:09 UTC)
found at http://weather.rap.ucar.edu/surface/
 
KPDT 100453Z AUTO 13006KT 10SM CLR 12/02 A2995 RMK AO2 SLP137 T01170017
KPDT 100353Z AUTO 00000KT 10SM CLR 17/M02 A2995 RMK AO2 SLP136 T01671017
KPDT 100253Z 00000KT 10SM CLR 18/M01 A2995 RMK AO2 SLP135 T01781011 56010
KPDT 100153Z 06004KT 10SM CLR 19/02 A2995 RMK AO2 SLP137 T01890022
KPDT 100053Z 02004KT 10SM CLR 22/M03 A2996 RMK AO2 SLP139 T02171033
KPDT 092353Z 35005KT 10SM CLR 22/M04 A2998 RMK AO2 SLP146 T02221039 10228 20161 56021
KPDT 092253Z 32006KT 10SM CLR 22/M04 A2999 RMK AO2 SLP151 T02221044
KPDT 092153Z 01007KT 10SM CLR 22/M04 A3002 RMK AO2 SLP157 T02171044
KPDT 092053Z 34006KT 10SM CLR 21/M03 A3005 RMK AO2 SLP167 T02111028 58019
KPDT 091953Z 33003KT 10SM CLR 19/M01 A3007 RMK AO2 SLP176 T01941006
KPDT 091853Z 00000KT 10SM CLR 17/M01 A3009 RMK AO2 SLP183 T01721011
KPDT 091753Z VRB04KT 10SM CLR 16/M01 A3011 RMK AO2 SLP190 T01611011 10161 20039 57009
KPDT 091653Z VRB04KT 10SM CLR 14/00 A3012 RMK AO2 SLP193 T01390000
KPDT 091553Z 16004KT 10SM CLR 09/01 A3013 RMK AO2 SLP197 T00940006
KPDT 091453Z 14005KT 10SM CLR 07/01 A3014 RMK AO2 SLP200 T00720006 55001
KPDT 091353Z 14007KT 9SM CLR 04/00 A3013 RMK AO2 SLP200 T00390000
KPDT 091253Z AUTO 14008KT 10SM CLR 06/00 A3013 RMK AO2 SLP199 T00560000
KPDT 091153Z AUTO 12007KT 10SM CLR 04/00 A3014 RMK AO2 SLP200 T00390000 10083 20039 57004
KPDT 091053Z AUTO 12006KT 10SM CLR 04/01 A3014 RMK AO2 SLP202 T00440006
KPDT 090953Z AUTO 14008KT 10SM CLR 06/01 A3015 RMK AO2 SLP203 T00610006
KPDT 090853Z AUTO 13009KT 10SM CLR 07/01 A3015 RMK AO2 SLP204 T00670011 58004